sensor_id;sensor_type;location;lat;lon;timestamp;temperature;humidity
8633;DHT22;4354;49.832;10.746;2023-04-29T00:00:47;9.00;99.90
8633;DHT22;4354;49.832;10.746;2023-04-29T00:03:14;8.90;99.90
8633;DHT22;4354;49.832;10.746;2023-04-29T00:05:40;8.90;99.90
8633;DHT22;4354;49.832;10.746;2023-04-29T00:08:07;8.90;99.90
8633;DHT22;4354;49.832;10.746;2023-04-29T00:10:34;8.90;99.90
8633;DHT22;4354;49.832;10.746;2023-04-29T00:13:02;8.80;99.90
8633;DHT22;4354;49.832;10.746;2023-04-29T00:15:28;8.90;99.90
8633;DHT22;4354;49.832;10.746;2023-04-29T00:17:55;9.00;99.90
8633;DHT22;4354;49.832;10.746;2023-04-29T00:20:22;9.10;99.90
8633;DHT22;4354;49.832;10.746;2023-04-29T00:22:49;9.10;99.90
8633;DHT22;4354;49.832;10.746;2023-04-29T00:25:15;9.10;99.90
8633;DHT22;4354;49.832;10.746;2023-04-29T00:27:43;9.10;99.90
8633;DHT22;4354;49.832;10.746;2023-04-29T00:30:10;9.10;99.90
8633;DHT22;4354;49.832;10.746;2023-04-29T00:32:36;9.10;99.90
8633;DHT22;4354;49.832;10.746;2023-04-29T00:35:04;9.10;99.90
8633;DHT22;4354;49.832;10.746;2023-04-29T00:37:30;9.10;99.90
8633;DHT22;4354;49.832;10.746;2023-04-29T00:39:57;9.00;99.90
8633;DHT22;4354;49.832;10.746;2023-04-29T00:42:24;9.00;99.90
8633;DHT22;4354;49.832;10.746;2023-04-29T00:44:51;9.00;99.90
8633;DHT22;4354;49.832;10.746;2023-04-29T00:47:18;8.90;99.90
8633;DHT22;4354;49.832;10.746;2023-04-29T00:49:45;8.80;99.90
8633;DHT22;4354;49.832;10.746;2023-04-29T00:52:12;8.70;99.90
8633;DHT22;4354;49.832;10.746;2023-04-29T00:54:40;8.60;99.90
8633;DHT22;4354;49.832;10.746;2023-04-29T00:57:07;8.50;99.90
8633;DHT22;4354;49.832;10.746;2023-04-29T00:59:34;8.50;99.90
8633;DHT22;4354;49.832;10.746;2023-04-29T01:02:02;8.50;99.90
8633;DHT22;4354;49.832;10.746;2023-04-29T01:04:30;8.40;99.90
8633;DHT22;4354;49.832;10.746;2023-04-29T01:10:13;8.30;99.90
8633;DHT22;4354;49.832;10.746;2023-04-29T01:12:44;8.30;99.90
8633;DHT22;4354;49.832;10.746;2023-04-29T01:15:21;8.20;99.90
8633;DHT22;4354;49.832;10.746;2023-04-29T01:18:03;8.20;99.90
8633;DHT22;4354;49.832;10.746;2023-04-29T01:20:31;8.20;99.90
8633;DHT22;4354;49.832;10.746;2023-04-29T01:22:59;8.20;99.90
8633;DHT22;4354;49.832;10.746;2023-04-29T01:25:26;8.20;99.90
8633;DHT22;4354;49.832;10.746;2023-04-29T01:38:59;8.00;99.90
8633;DHT22;4354;49.832;10.746;2023-04-29T01:42:02;7.90;99.90
8633;DHT22;4354;49.832;10.746;2023-04-29T01:44:32;7.90;99.90
8633;DHT22;4354;49.832;10.746;2023-04-29T01:47:00;7.80;99.90
8633;DHT22;4354;49.832;10.746;2023-04-29T01:49:27;7.70;99.90
8633;DHT22;4354;49.832;10.746;2023-04-29T01:51:54;7.60;99.90
8633;DHT22;4354;49.832;10.746;2023-04-29T01:54:21;7.60;99.90
8633;DHT22;4354;49.832;10.746;2023-04-29T01:56:48;7.60;99.90
8633;DHT22;4354;49.832;10.746;2023-04-29T01:59:15;7.50;99.90
8633;DHT22;4354;49.832;10.746;2023-04-29T02:01:42;7.50;99.90
8633;DHT22;4354;49.832;10.746;2023-04-29T02:04:09;7.40;99.90
8633;DHT22;4354;49.832;10.746;2023-04-29T02:06:36;7.40;99.90
8633;DHT22;4354;49.832;10.746;2023-04-29T02:09:02;7.30;99.90
8633;DHT22;4354;49.832;10.746;2023-04-29T02:11:29;7.30;99.90
8633;DHT22;4354;49.832;10.746;2023-04-29T02:13:56;7.30;99.90
8633;DHT22;4354;49.832;10.746;2023-04-29T02:16:23;7.40;99.90
8633;DHT22;4354;49.832;10.746;2023-04-29T02:18:50;7.40;99.90
8633;DHT22;4354;49.832;10.746;2023-04-29T02:21:16;7.50;99.90
8633;DHT22;4354;49.832;10.746;2023-04-29T02:23:43;7.50;99.90
8633;DHT22;4354;49.832;10.746;2023-04-29T02:26:10;7.60;99.90
8633;DHT22;4354;49.832;10.746;2023-04-29T02:28:37;7.60;99.90
8633;DHT22;4354;49.832;10.746;2023-04-29T02:31:04;7.60;99.90
8633;DHT22;4354;49.832;10.746;2023-04-29T02:33:32;7.70;99.90
8633;DHT22;4354;49.832;10.746;2023-04-29T02:35:59;7.70;99.90
8633;DHT22;4354;49.832;10.746;2023-04-29T02:38:26;7.70;99.90
8633;DHT22;4354;49.832;10.746;2023-04-29T02:40:52;7.70;99.90
8633;DHT22;4354;49.832;10.746;2023-04-29T02:43:19;7.70;99.90
8633;DHT22;4354;49.832;10.746;2023-04-29T02:45:46;7.60;99.90
8633;DHT22;4354;49.832;10.746;2023-04-29T02:48:12;7.60;99.90
8633;DHT22;4354;49.832;10.746;2023-04-29T02:50:39;7.50;99.90
8633;DHT22;4354;49.832;10.746;2023-04-29T02:53:06;7.50;99.90
8633;DHT22;4354;49.832;10.746;2023-04-29T02:55:33;7.50;99.90
8633;DHT22;4354;49.832;10.746;2023-04-29T02:57:59;7.50;99.90
8633;DHT22;4354;49.832;10.746;2023-04-29T03:00:26;7.50;99.90
8633;DHT22;4354;49.832;10.746;2023-04-29T03:02:53;7.50;99.90
8633;DHT22;4354;49.832;10.746;2023-04-29T03:05:20;7.50;99.90
8633;DHT22;4354;49.832;10.746;2023-04-29T03:07:47;7.50;99.90
8633;DHT22;4354;49.832;10.746;2023-04-29T03:10:13;7.50;99.90
8633;DHT22;4354;49.832;10.746;2023-04-29T03:12:40;7.60;99.90
8633;DHT22;4354;49.832;10.746;2023-04-29T03:15:07;7.60;99.90
8633;DHT22;4354;49.832;10.746;2023-04-29T03:17:36;7.50;99.90
8633;DHT22;4354;49.832;10.746;2023-04-29T03:20:03;7.50;99.90
8633;DHT22;4354;49.832;10.746;2023-04-29T03:22:30;7.40;99.90
8633;DHT22;4354;49.832;10.746;2023-04-29T03:24:57;7.40;99.90
8633;DHT22;4354;49.832;10.746;2023-04-29T03:27:24;7.40;99.90
8633;DHT22;4354;49.832;10.746;2023-04-29T03:29:50;7.40;99.90
8633;DHT22;4354;49.832;10.746;2023-04-29T03:32:18;7.40;99.90
8633;DHT22;4354;49.832;10.746;2023-04-29T03:34:44;7.40;99.90
8633;DHT22;4354;49.832;10.746;2023-04-29T03:37:11;7.40;99.90
8633;DHT22;4354;49.832;10.746;2023-04-29T03:39:38;7.40;99.90
8633;DHT22;4354;49.832;10.746;2023-04-29T03:42:05;7.40;99.90
8633;DHT22;4354;49.832;10.746;2023-04-29T03:44:32;7.40;99.90
8633;DHT22;4354;49.832;10.746;2023-04-29T03:46:59;7.40;99.90
8633;DHT22;4354;49.832;10.746;2023-04-29T03:49:26;7.40;99.90
8633;DHT22;4354;49.832;10.746;2023-04-29T03:51:53;7.50;99.90
8633;DHT22;4354;49.832;10.746;2023-04-29T03:54:19;7.50;99.90
8633;DHT22;4354;49.832;10.746;2023-04-29T03:56:47;7.50;99.90
8633;DHT22;4354;49.832;10.746;2023-04-29T03:59:13;7.50;99.90
8633;DHT22;4354;49.832;10.746;2023-04-29T04:01:40;7.50;99.90
8633;DHT22;4354;49.832;10.746;2023-04-29T04:04:07;7.60;99.90
8633;DHT22;4354;49.832;10.746;2023-04-29T04:06:34;7.60;99.90
8633;DHT22;4354;49.832;10.746;2023-04-29T04:09:00;7.60;99.90
8633;DHT22;4354;49.832;10.746;2023-04-29T04:11:27;7.60;99.90
8633;DHT22;4354;49.832;10.746;2023-04-29T04:13:54;7.60;99.90
8633;DHT22;4354;49.832;10.746;2023-04-29T04:16:21;7.60;99.90
8633;DHT22;4354;49.832;10.746;2023-04-29T04:18:48;7.60;99.90
8633;DHT22;4354;49.832;10.746;2023-04-29T04:21:14;7.70;99.90
8633;DHT22;4354;49.832;10.746;2023-04-29T04:23:41;7.70;99.90
8633;DHT22;4354;49.832;10.746;2023-04-29T04:26:09;7.70;99.90
8633;DHT22;4354;49.832;10.746;2023-04-29T04:28:36;7.80;99.90
8633;DHT22;4354;49.832;10.746;2023-04-29T04:31:03;7.80;99.90
8633;DHT22;4354;49.832;10.746;2023-04-29T04:33:31;7.90;99.90
8633;DHT22;4354;49.832;10.746;2023-04-29T04:35:57;7.90;99.90
8633;DHT22;4354;49.832;10.746;2023-04-29T04:38:24;8.00;99.90
8633;DHT22;4354;49.832;10.746;2023-04-29T04:40:51;8.00;99.90
8633;DHT22;4354;49.832;10.746;2023-04-29T04:43:18;8.10;99.90
8633;DHT22;4354;49.832;10.746;2023-04-29T04:45:45;8.20;99.90
8633;DHT22;4354;49.832;10.746;2023-04-29T04:48:12;8.20;99.90
8633;DHT22;4354;49.832;10.746;2023-04-29T04:50:38;8.20;99.90
8633;DHT22;4354;49.832;10.746;2023-04-29T04:53:05;8.30;99.90
8633;DHT22;4354;49.832;10.746;2023-04-29T04:55:32;8.30;99.90
8633;DHT22;4354;49.832;10.746;2023-04-29T04:57:59;8.30;99.90
8633;DHT22;4354;49.832;10.746;2023-04-29T05:00:25;8.40;99.90
8633;DHT22;4354;49.832;10.746;2023-04-29T05:02:52;8.40;99.90
8633;DHT22;4354;49.832;10.746;2023-04-29T05:05:20;8.50;99.90
8633;DHT22;4354;49.832;10.746;2023-04-29T05:07:47;8.60;99.90
8633;DHT22;4354;49.832;10.746;2023-04-29T05:10:14;8.70;99.90
8633;DHT22;4354;49.832;10.746;2023-04-29T05:12:40;8.80;99.90
8633;DHT22;4354;49.832;10.746;2023-04-29T05:15:07;8.80;99.90
8633;DHT22;4354;49.832;10.746;2023-04-29T05:17:34;8.90;99.90
8633;DHT22;4354;49.832;10.746;2023-04-29T05:20:02;9.00;99.90
8633;DHT22;4354;49.832;10.746;2023-04-29T05:22:29;9.00;99.90
8633;DHT22;4354;49.832;10.746;2023-04-29T05:24:56;9.10;99.90
8633;DHT22;4354;49.832;10.746;2023-04-29T05:27:28;9.20;99.90
8633;DHT22;4354;49.832;10.746;2023-04-29T05:29:55;9.30;99.90
8633;DHT22;4354;49.832;10.746;2023-04-29T05:32:24;9.30;99.90
8633;DHT22;4354;49.832;10.746;2023-04-29T05:34:51;9.40;99.90
8633;DHT22;4354;49.832;10.746;2023-04-29T05:37:18;9.40;99.90
8633;DHT22;4354;49.832;10.746;2023-04-29T05:39:44;9.50;99.90
8633;DHT22;4354;49.832;10.746;2023-04-29T05:42:11;9.50;99.90
8633;DHT22;4354;49.832;10.746;2023-04-29T05:44:38;9.60;99.90
8633;DHT22;4354;49.832;10.746;2023-04-29T05:47:05;9.70;99.90
8633;DHT22;4354;49.832;10.746;2023-04-29T05:49:32;9.70;99.90
8633;DHT22;4354;49.832;10.746;2023-04-29T05:51:59;9.80;99.90
8633;DHT22;4354;49.832;10.746;2023-04-29T05:54:29;9.90;99.90
8633;DHT22;4354;49.832;10.746;2023-04-29T05:56:56;9.90;99.90
8633;DHT22;4354;49.832;10.746;2023-04-29T05:59:23;10.00;99.90
8633;DHT22;4354;49.832;10.746;2023-04-29T06:01:50;10.10;99.90
8633;DHT22;4354;49.832;10.746;2023-04-29T06:04:17;10.20;99.90
8633;DHT22;4354;49.832;10.746;2023-04-29T06:06:44;10.30;99.90
8633;DHT22;4354;49.832;10.746;2023-04-29T06:09:11;10.50;99.90
8633;DHT22;4354;49.832;10.746;2023-04-29T06:11:53;10.60;99.90
8633;DHT22;4354;49.832;10.746;2023-04-29T06:14:20;10.70;98.90
8633;DHT22;4354;49.832;10.746;2023-04-29T06:16:47;10.70;98.70
8633;DHT22;4354;49.832;10.746;2023-04-29T06:19:15;10.80;99.90
8633;DHT22;4354;49.832;10.746;2023-04-29T06:21:41;11.00;94.50
8633;DHT22;4354;49.832;10.746;2023-04-29T06:24:08;11.10;95.10
8633;DHT22;4354;49.832;10.746;2023-04-29T06:26:35;11.20;94.50
8633;DHT22;4354;49.832;10.746;2023-04-29T06:29:02;11.40;97.30
8633;DHT22;4354;49.832;10.746;2023-04-29T06:31:29;11.60;96.40
8633;DHT22;4354;49.832;10.746;2023-04-29T06:33:56;11.80;91.90
8633;DHT22;4354;49.832;10.746;2023-04-29T06:36:23;11.80;67.30
8633;DHT22;4354;49.832;10.746;2023-04-29T06:38:50;12.00;64.30
8633;DHT22;4354;49.832;10.746;2023-04-29T06:41:17;12.10;44.10
8633;DHT22;4354;49.832;10.746;2023-04-29T06:43:44;12.20;43.70
8633;DHT22;4354;49.832;10.746;2023-04-29T06:46:14;12.50;62.80
8633;DHT22;4354;49.832;10.746;2023-04-29T06:48:40;12.70;54.20
8633;DHT22;4354;49.832;10.746;2023-04-29T06:51:07;12.80;4.70
8633;DHT22;4354;49.832;10.746;2023-04-29T06:53:34;12.90;1.00
8633;DHT22;4354;49.832;10.746;2023-04-29T06:56:01;13.00;3.60
8633;DHT22;4354;49.832;10.746;2023-04-29T06:58:27;13.10;10.10
8633;DHT22;4354;49.832;10.746;2023-04-29T07:00:54;13.20;1.00
8633;DHT22;4354;49.832;10.746;2023-04-29T07:03:21;13.30;1.00
8633;DHT22;4354;49.832;10.746;2023-04-29T07:05:48;13.40;1.00
8633;DHT22;4354;49.832;10.746;2023-04-29T07:08:15;13.60;1.00
8633;DHT22;4354;49.832;10.746;2023-04-29T07:10:42;13.70;1.00
8633;DHT22;4354;49.832;10.746;2023-04-29T07:13:09;13.80;1.00
8633;DHT22;4354;49.832;10.746;2023-04-29T07:15:36;14.00;1.00
8633;DHT22;4354;49.832;10.746;2023-04-29T07:18:06;13.90;1.00
8633;DHT22;4354;49.832;10.746;2023-04-29T07:20:35;13.90;1.00
8633;DHT22;4354;49.832;10.746;2023-04-29T07:23:02;14.00;1.00
8633;DHT22;4354;49.832;10.746;2023-04-29T07:25:29;13.90;1.00
8633;DHT22;4354;49.832;10.746;2023-04-29T07:27:56;13.80;1.00
8633;DHT22;4354;49.832;10.746;2023-04-29T07:30:23;13.70;1.00
8633;DHT22;4354;49.832;10.746;2023-04-29T07:32:50;13.70;1.00
8633;DHT22;4354;49.832;10.746;2023-04-29T07:35:17;13.60;99.90
8633;DHT22;4354;49.832;10.746;2023-04-29T07:37:44;13.60;99.90
8633;DHT22;4354;49.832;10.746;2023-04-29T07:40:12;13.70;99.90
8633;DHT22;4354;49.832;10.746;2023-04-29T07:42:39;13.60;99.90
8633;DHT22;4354;49.832;10.746;2023-04-29T07:45:06;13.60;1.00
8633;DHT22;4354;49.832;10.746;2023-04-29T07:47:33;13.60;99.90
8633;DHT22;4354;49.832;10.746;2023-04-29T07:50:00;13.70;68.40
8633;DHT22;4354;49.832;10.746;2023-04-29T07:52:27;13.70;99.90
8633;DHT22;4354;49.832;10.746;2023-04-29T07:54:54;13.70;99.90
8633;DHT22;4354;49.832;10.746;2023-04-29T07:57:23;13.60;99.90
8633;DHT22;4354;49.832;10.746;2023-04-29T07:59:54;13.50;99.90
8633;DHT22;4354;49.832;10.746;2023-04-29T08:02:21;13.40;99.90
8633;DHT22;4354;49.832;10.746;2023-04-29T08:04:48;13.40;31.20
8633;DHT22;4354;49.832;10.746;2023-04-29T08:07:17;13.80;99.90
8633;DHT22;4354;49.832;10.746;2023-04-29T08:09:44;14.60;1.00
8633;DHT22;4354;49.832;10.746;2023-04-29T08:12:11;15.80;99.90
8633;DHT22;4354;49.832;10.746;2023-04-29T08:14:37;16.60;1.00
8633;DHT22;4354;49.832;10.746;2023-04-29T08:17:04;17.10;99.90
8633;DHT22;4354;49.832;10.746;2023-04-29T08:19:31;17.90;1.00
8633;DHT22;4354;49.832;10.746;2023-04-29T08:21:58;18.40;1.00
8633;DHT22;4354;49.832;10.746;2023-04-29T08:24:26;18.90;1.00
8633;DHT22;4354;49.832;10.746;2023-04-29T08:26:54;19.00;99.90
8633;DHT22;4354;49.832;10.746;2023-04-29T08:29:21;19.10;99.90
8633;DHT22;4354;49.832;10.746;2023-04-29T08:31:48;19.20;99.90
8633;DHT22;4354;49.832;10.746;2023-04-29T08:34:15;19.10;99.90
8633;DHT22;4354;49.832;10.746;2023-04-29T08:36:42;19.20;99.90
8633;DHT22;4354;49.832;10.746;2023-04-29T08:39:09;19.10;99.90
8633;DHT22;4354;49.832;10.746;2023-04-29T08:41:36;19.30;99.90
8633;DHT22;4354;49.832;10.746;2023-04-29T08:44:03;19.30;99.90
8633;DHT22;4354;49.832;10.746;2023-04-29T08:46:31;19.90;99.90
8633;DHT22;4354;49.832;10.746;2023-04-29T08:49:00;20.20;99.90
8633;DHT22;4354;49.832;10.746;2023-04-29T08:51:29;20.20;99.90
8633;DHT22;4354;49.832;10.746;2023-04-29T08:53:58;20.20;99.90
8633;DHT22;4354;49.832;10.746;2023-04-29T08:56:25;20.00;99.90
8633;DHT22;4354;49.832;10.746;2023-04-29T08:58:55;20.20;99.90
8633;DHT22;4354;49.832;10.746;2023-04-29T09:01:27;20.50;99.90
8633;DHT22;4354;49.832;10.746;2023-04-29T09:06:29;20.80;99.90
8633;DHT22;4354;49.832;10.746;2023-04-29T09:09:00;21.00;99.90
8633;DHT22;4354;49.832;10.746;2023-04-29T09:11:29;21.10;99.90
8633;DHT22;4354;49.832;10.746;2023-04-29T09:14:00;20.90;99.90
8633;DHT22;4354;49.832;10.746;2023-04-29T09:16:27;21.00;99.90
8633;DHT22;4354;49.832;10.746;2023-04-29T09:18:54;21.30;99.90
8633;DHT22;4354;49.832;10.746;2023-04-29T09:21:27;21.80;99.90
8633;DHT22;4354;49.832;10.746;2023-04-29T09:23:57;22.00;99.90
8633;DHT22;4354;49.832;10.746;2023-04-29T09:26:26;21.90;99.90
8633;DHT22;4354;49.832;10.746;2023-04-29T09:29:09;21.40;99.90
8633;DHT22;4354;49.832;10.746;2023-04-29T09:31:37;20.80;99.90
8633;DHT22;4354;49.832;10.746;2023-04-29T09:34:08;20.60;99.90
8633;DHT22;4354;49.832;10.746;2023-04-29T09:39:06;19.50;99.90
8633;DHT22;4354;49.832;10.746;2023-04-29T09:44:25;19.20;99.90
8633;DHT22;4354;49.832;10.746;2023-04-29T09:47:00;19.20;99.90
8633;DHT22;4354;49.832;10.746;2023-04-29T09:49:33;19.10;99.90
8633;DHT22;4354;49.832;10.746;2023-04-29T09:52:06;19.00;99.90
8633;DHT22;4354;49.832;10.746;2023-04-29T09:54:34;18.90;99.90
8633;DHT22;4354;49.832;10.746;2023-04-29T09:57:03;18.90;99.90
8633;DHT22;4354;49.832;10.746;2023-04-29T09:59:34;19.30;99.90
8633;DHT22;4354;49.832;10.746;2023-04-29T10:02:12;19.70;99.90
8633;DHT22;4354;49.832;10.746;2023-04-29T10:04:52;20.10;99.90
8633;DHT22;4354;49.832;10.746;2023-04-29T10:07:20;20.70;99.90
8633;DHT22;4354;49.832;10.746;2023-04-29T10:09:47;21.40;99.90
8633;DHT22;4354;49.832;10.746;2023-04-29T10:12:19;22.20;99.90
8633;DHT22;4354;49.832;10.746;2023-04-29T10:14:52;22.50;99.90
8633;DHT22;4354;49.832;10.746;2023-04-29T10:17:45;22.20;99.90
8633;DHT22;4354;49.832;10.746;2023-04-29T10:20:13;22.00;99.90
8633;DHT22;4354;49.832;10.746;2023-04-29T10:22:48;21.60;99.90
8633;DHT22;4354;49.832;10.746;2023-04-29T10:25:20;21.10;99.90
8633;DHT22;4354;49.832;10.746;2023-04-29T10:27:48;20.60;99.90
8633;DHT22;4354;49.832;10.746;2023-04-29T10:30:18;20.00;99.90
8633;DHT22;4354;49.832;10.746;2023-04-29T10:32:47;19.80;99.90
8633;DHT22;4354;49.832;10.746;2023-04-29T10:35:19;19.30;99.90
8633;DHT22;4354;49.832;10.746;2023-04-29T10:37:48;19.10;99.90
8633;DHT22;4354;49.832;10.746;2023-04-29T10:40:21;19.00;99.90
8633;DHT22;4354;49.832;10.746;2023-04-29T10:45:23;19.00;99.90
8633;DHT22;4354;49.832;10.746;2023-04-29T10:51:26;19.20;99.90
8633;DHT22;4354;49.832;10.746;2023-04-29T10:53:19;19.10;99.90
8633;DHT22;4354;49.832;10.746;2023-04-29T10:55:48;18.90;99.90
8633;DHT22;4354;49.832;10.746;2023-04-29T10:58:38;18.70;99.90
8633;DHT22;4354;49.832;10.746;2023-04-29T11:01:08;18.50;99.90
8633;DHT22;4354;49.832;10.746;2023-04-29T11:03:57;18.20;99.90
8633;DHT22;4354;49.832;10.746;2023-04-29T11:09:10;17.60;99.90
8633;DHT22;4354;49.832;10.746;2023-04-29T11:11:45;17.40;99.90
8633;DHT22;4354;49.832;10.746;2023-04-29T11:14:13;17.10;99.90
8633;DHT22;4354;49.832;10.746;2023-04-29T11:16:58;17.00;99.90
8633;DHT22;4354;49.832;10.746;2023-04-29T11:19:39;16.90;99.90
8633;DHT22;4354;49.832;10.746;2023-04-29T11:27:20;16.50;99.90
8633;DHT22;4354;49.832;10.746;2023-04-29T11:29:52;16.50;99.90
8633;DHT22;4354;49.832;10.746;2023-04-29T11:32:29;16.70;99.90
8633;DHT22;4354;49.832;10.746;2023-04-29T11:35:12;16.90;99.90
8633;DHT22;4354;49.832;10.746;2023-04-29T11:37:40;17.20;99.90
8633;DHT22;4354;49.832;10.746;2023-04-29T11:40:08;17.20;99.90
8633;DHT22;4354;49.832;10.746;2023-04-29T11:42:40;17.00;99.90
8633;DHT22;4354;49.832;10.746;2023-04-29T11:45:07;16.70;99.90
8633;DHT22;4354;49.832;10.746;2023-04-29T11:47:34;16.60;99.90
8633;DHT22;4354;49.832;10.746;2023-04-29T11:50:06;16.40;99.90
8633;DHT22;4354;49.832;10.746;2023-04-29T11:52:35;16.20;99.90
8633;DHT22;4354;49.832;10.746;2023-04-29T11:55:04;16.00;99.90
8633;DHT22;4354;49.832;10.746;2023-04-29T11:57:31;16.00;99.90
8633;DHT22;4354;49.832;10.746;2023-04-29T11:59:58;15.90;99.90
8633;DHT22;4354;49.832;10.746;2023-04-29T12:02:29;15.90;99.90
8633;DHT22;4354;49.832;10.746;2023-04-29T12:04:58;16.00;99.90
8633;DHT22;4354;49.832;10.746;2023-04-29T12:07:27;16.00;99.90
8633;DHT22;4354;49.832;10.746;2023-04-29T12:09:54;16.00;99.90
8633;DHT22;4354;49.832;10.746;2023-04-29T12:12:23;16.10;99.90
8633;DHT22;4354;49.832;10.746;2023-04-29T12:14:50;16.00;99.90
8633;DHT22;4354;49.832;10.746;2023-04-29T12:17:17;16.00;99.90
8633;DHT22;4354;49.832;10.746;2023-04-29T12:19:44;16.10;99.90
8633;DHT22;4354;49.832;10.746;2023-04-29T12:22:11;16.20;99.90
8633;DHT22;4354;49.832;10.746;2023-04-29T12:24:39;16.30;99.90
8633;DHT22;4354;49.832;10.746;2023-04-29T12:27:07;16.40;99.90
8633;DHT22;4354;49.832;10.746;2023-04-29T12:29:37;16.50;99.90
8633;DHT22;4354;49.832;10.746;2023-04-29T12:32:06;16.60;99.90
8633;DHT22;4354;49.832;10.746;2023-04-29T12:34:34;16.70;99.90
8633;DHT22;4354;49.832;10.746;2023-04-29T12:37:01;16.80;99.90
8633;DHT22;4354;49.832;10.746;2023-04-29T12:39:29;16.80;99.90
8633;DHT22;4354;49.832;10.746;2023-04-29T12:42:00;16.70;99.90
8633;DHT22;4354;49.832;10.746;2023-04-29T12:44:35;16.70;99.90
8633;DHT22;4354;49.832;10.746;2023-04-29T12:47:09;16.80;99.90
8633;DHT22;4354;49.832;10.746;2023-04-29T12:49:37;16.60;99.90
8633;DHT22;4354;49.832;10.746;2023-04-29T12:52:04;16.60;99.90
8633;DHT22;4354;49.832;10.746;2023-04-29T12:54:35;16.60;99.90
8633;DHT22;4354;49.832;10.746;2023-04-29T12:57:03;16.60;99.90
8633;DHT22;4354;49.832;10.746;2023-04-29T12:59:30;16.50;99.90
8633;DHT22;4354;49.832;10.746;2023-04-29T13:01:57;16.60;99.90
8633;DHT22;4354;49.832;10.746;2023-04-29T13:04:23;16.50;99.90
8633;DHT22;4354;49.832;10.746;2023-04-29T13:06:50;16.40;99.90
8633;DHT22;4354;49.832;10.746;2023-04-29T13:09:27;16.40;99.90
8633;DHT22;4354;49.832;10.746;2023-04-29T13:11:55;16.30;99.90
8633;DHT22;4354;49.832;10.746;2023-04-29T13:14:21;16.20;99.90
8633;DHT22;4354;49.832;10.746;2023-04-29T13:16:48;16.10;99.90
8633;DHT22;4354;49.832;10.746;2023-04-29T13:19:15;16.10;99.90
8633;DHT22;4354;49.832;10.746;2023-04-29T13:22:02;16.10;99.90
8633;DHT22;4354;49.832;10.746;2023-04-29T13:24:28;16.10;99.90
8633;DHT22;4354;49.832;10.746;2023-04-29T13:26:55;16.20;99.90
8633;DHT22;4354;49.832;10.746;2023-04-29T13:29:23;16.40;99.90
8633;DHT22;4354;49.832;10.746;2023-04-29T13:31:50;16.60;99.90
8633;DHT22;4354;49.832;10.746;2023-04-29T13:34:17;16.80;99.90
8633;DHT22;4354;49.832;10.746;2023-04-29T13:36:44;17.10;99.90
8633;DHT22;4354;49.832;10.746;2023-04-29T13:39:11;17.10;99.90
8633;DHT22;4354;49.832;10.746;2023-04-29T13:41:37;17.20;99.90
8633;DHT22;4354;49.832;10.746;2023-04-29T13:44:10;17.00;99.90
8633;DHT22;4354;49.832;10.746;2023-04-29T13:46:56;16.60;99.90
8633;DHT22;4354;49.832;10.746;2023-04-29T13:49:23;16.30;99.90
8633;DHT22;4354;49.832;10.746;2023-04-29T13:52:10;15.90;99.90
8633;DHT22;4354;49.832;10.746;2023-04-29T13:54:57;15.60;99.90
8633;DHT22;4354;49.832;10.746;2023-04-29T13:57:29;15.20;99.90
8633;DHT22;4354;49.832;10.746;2023-04-29T13:59:59;14.90;99.90
8633;DHT22;4354;49.832;10.746;2023-04-29T14:02:26;14.80;99.90
8633;DHT22;4354;49.832;10.746;2023-04-29T14:04:53;14.70;99.90
8633;DHT22;4354;49.832;10.746;2023-04-29T14:07:21;14.50;99.90
8633;DHT22;4354;49.832;10.746;2023-04-29T14:09:48;14.40;99.90
8633;DHT22;4354;49.832;10.746;2023-04-29T14:12:15;14.40;99.90
8633;DHT22;4354;49.832;10.746;2023-04-29T14:14:42;14.20;99.90
8633;DHT22;4354;49.832;10.746;2023-04-29T14:17:09;14.20;99.90
8633;DHT22;4354;49.832;10.746;2023-04-29T14:19:35;14.10;99.90
8633;DHT22;4354;49.832;10.746;2023-04-29T14:22:02;14.10;99.90
8633;DHT22;4354;49.832;10.746;2023-04-29T14:24:29;14.20;99.90
8633;DHT22;4354;49.832;10.746;2023-04-29T14:26:56;14.10;99.90
8633;DHT22;4354;49.832;10.746;2023-04-29T14:29:23;14.10;99.90
8633;DHT22;4354;49.832;10.746;2023-04-29T14:31:50;14.20;99.90
8633;DHT22;4354;49.832;10.746;2023-04-29T14:34:17;14.10;99.90
8633;DHT22;4354;49.832;10.746;2023-04-29T14:36:45;14.20;99.90
8633;DHT22;4354;49.832;10.746;2023-04-29T14:39:12;14.30;99.90
8633;DHT22;4354;49.832;10.746;2023-04-29T14:41:39;14.40;99.90
8633;DHT22;4354;49.832;10.746;2023-04-29T14:44:06;14.50;99.90
8633;DHT22;4354;49.832;10.746;2023-04-29T14:46:32;14.60;1.00
8633;DHT22;4354;49.832;10.746;2023-04-29T14:48:59;14.80;99.90
8633;DHT22;4354;49.832;10.746;2023-04-29T14:51:26;14.90;99.90
8633;DHT22;4354;49.832;10.746;2023-04-29T14:53:53;15.00;99.90
8633;DHT22;4354;49.832;10.746;2023-04-29T14:56:20;15.20;99.90
8633;DHT22;4354;49.832;10.746;2023-04-29T14:58:47;15.40;99.90
8633;DHT22;4354;49.832;10.746;2023-04-29T15:01:14;15.50;99.90
8633;DHT22;4354;49.832;10.746;2023-04-29T15:03:41;15.50;99.90
8633;DHT22;4354;49.832;10.746;2023-04-29T15:06:11;15.60;99.90
8633;DHT22;4354;49.832;10.746;2023-04-29T15:08:38;15.60;99.90
8633;DHT22;4354;49.832;10.746;2023-04-29T15:11:05;15.60;99.90
8633;DHT22;4354;49.832;10.746;2023-04-29T15:13:31;15.70;99.90
8633;DHT22;4354;49.832;10.746;2023-04-29T15:15:58;15.70;99.90
8633;DHT22;4354;49.832;10.746;2023-04-29T15:18:25;15.70;99.90
8633;DHT22;4354;49.832;10.746;2023-04-29T15:20:52;15.70;99.90
8633;DHT22;4354;49.832;10.746;2023-04-29T15:23:19;15.70;99.90
8633;DHT22;4354;49.832;10.746;2023-04-29T15:25:46;15.60;99.90
8633;DHT22;4354;49.832;10.746;2023-04-29T15:28:13;15.60;99.90
8633;DHT22;4354;49.832;10.746;2023-04-29T15:30:40;15.60;99.90
8633;DHT22;4354;49.832;10.746;2023-04-29T15:33:06;15.50;99.90
8633;DHT22;4354;49.832;10.746;2023-04-29T15:35:34;15.40;99.90
8633;DHT22;4354;49.832;10.746;2023-04-29T15:38:02;15.30;99.90
8633;DHT22;4354;49.832;10.746;2023-04-29T15:40:29;15.30;99.90
8633;DHT22;4354;49.832;10.746;2023-04-29T15:42:55;15.20;99.90
8633;DHT22;4354;49.832;10.746;2023-04-29T15:45:22;15.10;99.90
8633;DHT22;4354;49.832;10.746;2023-04-29T15:47:49;15.10;99.90
8633;DHT22;4354;49.832;10.746;2023-04-29T15:50:16;15.00;99.90
8633;DHT22;4354;49.832;10.746;2023-04-29T15:52:43;15.00;99.90
8633;DHT22;4354;49.832;10.746;2023-04-29T15:55:09;15.00;99.90
8633;DHT22;4354;49.832;10.746;2023-04-29T15:57:37;14.90;99.90
8633;DHT22;4354;49.832;10.746;2023-04-29T16:00:07;14.70;99.90
8633;DHT22;4354;49.832;10.746;2023-04-29T16:02:34;14.70;99.90
8633;DHT22;4354;49.832;10.746;2023-04-29T16:05:01;14.60;99.90
8633;DHT22;4354;49.832;10.746;2023-04-29T16:07:29;14.50;99.90
8633;DHT22;4354;49.832;10.746;2023-04-29T16:09:56;14.30;99.90
8633;DHT22;4354;49.832;10.746;2023-04-29T16:12:23;14.20;99.90
8633;DHT22;4354;49.832;10.746;2023-04-29T16:14:50;14.10;99.90
8633;DHT22;4354;49.832;10.746;2023-04-29T16:17:17;14.00;99.90
8633;DHT22;4354;49.832;10.746;2023-04-29T16:19:44;13.90;99.90
8633;DHT22;4354;49.832;10.746;2023-04-29T16:22:11;13.90;99.90
8633;DHT22;4354;49.832;10.746;2023-04-29T16:24:38;13.80;99.90
8633;DHT22;4354;49.832;10.746;2023-04-29T16:27:04;13.80;99.90
8633;DHT22;4354;49.832;10.746;2023-04-29T16:29:32;13.70;99.90
8633;DHT22;4354;49.832;10.746;2023-04-29T16:31:59;13.70;99.90
8633;DHT22;4354;49.832;10.746;2023-04-29T16:34:27;13.70;99.90